sensor_id;sensor_type;location;lat;lon;timestamp;pressure;altitude;pressure_sealevel;temperature;humidity
30343;BME280;17145;49.902;8.680;'2023-02-04 00:59:11';101400;;;7;48
30343;BME280;17145;49.902;8.680;'2023-02-04 01:01:38';101400;;;7;48
30343;BME280;17145;49.902;8.680;'2023-02-04 01:04:06';101410;;;7;48
30343;BME280;17145;49.902;8.680;'2023-02-04 01:06:33';101410;;;7;48
30343;BME280;17145;49.902;8.680;'2023-02-04 01:09:00';101410;;;7;48
30343;BME280;17145;49.902;8.680;'2023-02-04 01:11:28';101420;;;7;48
30343;BME280;17145;49.902;8.680;'2023-02-04 01:13:55';101420;;;8;48
30343;BME280;17145;49.902;8.680;'2023-02-04 01:16:23';101420;;;7;48
30343;BME280;17145;49.902;8.680;'2023-02-04 01:18:50';101430;;;7;48
30343;BME280;17145;49.902;8.680;'2023-02-04 01:21:18';101430;;;7;48
30343;BME280;17145;49.902;8.680;'2023-02-04 01:23:45';101430;;;7;48
30343;BME280;17145;49.902;8.680;'2023-02-04 01:26:13';101420;;;7;48
30343;BME280;17145;49.902;8.680;'2023-02-04 01:28:40';101420;;;7;48
30343;BME280;17145;49.902;8.680;'2023-02-04 01:31:08';101420;;;7;48
30343;BME280;17145;49.902;8.680;'2023-02-04 01:33:35';101430;;;7;48
30343;BME280;17145;49.902;8.680;'2023-02-04 01:36:03';101430;;;7;47
30343;BME280;17145;49.902;8.680;'2023-02-04 01:38:31';101430;;;7;47
30343;BME280;17145;49.902;8.680;'2023-02-04 01:40:58';101440;;;7;48
30343;BME280;17145;49.902;8.680;'2023-02-04 01:43:25';101440;;;7;48
30343;BME280;17145;49.902;8.680;'2023-02-04 01:45:53';101440;;;7;47
30343;BME280;17145;49.902;8.680;'2023-02-04 01:48:20';101440;;;7;47
30343;BME280;17145;49.902;8.680;'2023-02-04 01:50:47';101440;;;7;47
30343;BME280;17145;49.902;8.680;'2023-02-04 01:53:15';101450;;;7;47
30343;BME280;17145;49.902;8.680;'2023-02-04 01:55:42';101450;;;7;47
30343;BME280;17145;49.902;8.680;'2023-02-04 01:58:10';101450;;;7;47
30343;BME280;17145;49.902;8.680;'2023-02-04 02:00:37';101450;;;7;47
30343;BME280;17145;49.902;8.680;'2023-02-04 02:03:04';101450;;;7;47
30343;BME280;17145;49.902;8.680;'2023-02-04 02:05:32';101460;;;7;47
30343;BME280;17145;49.902;8.680;'2023-02-04 02:07:59';101450;;;7;46
30343;BME280;17145;49.902;8.680;'2023-02-04 02:10:27';101460;;;7;47
30343;BME280;17145;49.902;8.680;'2023-02-04 02:12:54';101470;;;8;47
30343;BME280;17145;49.902;8.680;'2023-02-04 02:15:22';101460;;;7;47
30343;BME280;17145;49.902;8.680;'2023-02-04 02:17:49';101470;;;7;46
30343;BME280;17145;49.902;8.680;'2023-02-04 02:20:17';101480;;;7;46
30343;BME280;17145;49.902;8.680;'2023-02-04 02:22:44';101480;;;7;46
30343;BME280;17145;49.902;8.680;'2023-02-04 02:25:12';101480;;;7;47
30343;BME280;17145;49.902;8.680;'2023-02-04 02:27:39';101480;;;7;47
30343;BME280;17145;49.902;8.680;'2023-02-04 02:30:08';101480;;;7;47
30343;BME280;17145;49.902;8.680;'2023-02-04 02:32:36';101490;;;7;47
30343;BME280;17145;49.902;8.680;'2023-02-04 02:35:03';101490;;;7;46
30343;BME280;17145;49.902;8.680;'2023-02-04 02:37:31';101490;;;8;46
30343;BME280;17145;49.902;8.680;'2023-02-04 02:39:58';101500;;;7;46
30343;BME280;17145;49.902;8.680;'2023-02-04 02:42:26';101500;;;7;46
30343;BME280;17145;49.902;8.680;'2023-02-04 02:44:53';101500;;;7;46
30343;BME280;17145;49.902;8.680;'2023-02-04 02:47:21';101500;;;7;47
30343;BME280;17145;49.902;8.680;'2023-02-04 02:49:52';101500;;;7;46
30343;BME280;17145;49.902;8.680;'2023-02-04 02:52:22';101490;;;7;46
30343;BME280;17145;49.902;8.680;'2023-02-04 02:54:50';101490;;;8;46
30343;BME280;17145;49.902;8.680;'2023-02-04 02:57:17';101490;;;7;46
30343;BME280;17145;49.902;8.680;'2023-02-04 03:02:33';101500;;;7;46
30343;BME280;17145;49.902;8.680;'2023-02-04 03:05:00';101500;;;7;46
30343;BME280;17145;49.902;8.680;'2023-02-04 03:07:28';101510;;;7;46
30343;BME280;17145;49.902;8.680;'2023-02-04 03:09:55';101500;;;7;46
30343;BME280;17145;49.902;8.680;'2023-02-04 03:12:22';101510;;;8;46
30343;BME280;17145;49.902;8.680;'2023-02-04 03:14:50';101510;;;7;46
30343;BME280;17145;49.902;8.680;'2023-02-04 03:17:17';101520;;;7;46
30343;BME280;17145;49.902;8.680;'2023-02-04 03:19:45';101520;;;7;46
30343;BME280;17145;49.902;8.680;'2023-02-04 03:22:19';101530;;;7;46
30343;BME280;17145;49.902;8.680;'2023-02-04 03:24:46';101520;;;7;46
30343;BME280;17145;49.902;8.680;'2023-02-04 03:27:14';101530;;;7;46
30343;BME280;17145;49.902;8.680;'2023-02-04 03:29:42';101530;;;7;46
30343;BME280;17145;49.902;8.680;'2023-02-04 03:32:12';101530;;;7;45
30343;BME280;17145;49.902;8.680;'2023-02-04 03:34:40';101520;;;7;46
30343;BME280;17145;49.902;8.680;'2023-02-04 03:37:08';101530;;;8;46
30343;BME280;17145;49.902;8.680;'2023-02-04 03:39:37';101530;;;7;46
30343;BME280;17145;49.902;8.680;'2023-02-04 03:42:05';101530;;;7;46
30343;BME280;17145;49.902;8.680;'2023-02-04 03:44:33';101530;;;7;46
30343;BME280;17145;49.902;8.680;'2023-02-04 03:47:00';101540;;;7;46
30343;BME280;17145;49.902;8.680;'2023-02-04 03:49:30';101530;;;7;46
30343;BME280;17145;49.902;8.680;'2023-02-04 03:51:58';101540;;;7;46
30343;BME280;17145;49.902;8.680;'2023-02-04 03:54:27';101540;;;7;46
30343;BME280;17145;49.902;8.680;'2023-02-04 03:56:56';101540;;;7;47
30343;BME280;17145;49.902;8.680;'2023-02-04 03:59:25';101530;;;7;47
30343;BME280;17145;49.902;8.680;'2023-02-04 04:01:57';101530;;;7;46
30343;BME280;17145;49.902;8.680;'2023-02-04 04:04:26';101530;;;7;46
30343;BME280;17145;49.902;8.680;'2023-02-04 04:06:55';101520;;;6;46
30343;BME280;17145;49.902;8.680;'2023-02-04 04:09:24';101520;;;7;46
30343;BME280;17145;49.902;8.680;'2023-02-04 04:11:52';101530;;;7;46
30343;BME280;17145;49.902;8.680;'2023-02-04 04:14:21';101540;;;7;46
30343;BME280;17145;49.902;8.680;'2023-02-04 04:16:50';101540;;;7;46
30343;BME280;17145;49.902;8.680;'2023-02-04 04:19:18';101550;;;7;46
30343;BME280;17145;49.902;8.680;'2023-02-04 04:21:45';101560;;;7;46
30343;BME280;17145;49.902;8.680;'2023-02-04 04:24:13';101560;;;7;46
30343;BME280;17145;49.902;8.680;'2023-02-04 04:26:40';101560;;;7;46
30343;BME280;17145;49.902;8.680;'2023-02-04 04:29:10';101560;;;7;46
30343;BME280;17145;49.902;8.680;'2023-02-04 04:31:37';101570;;;7;46
30343;BME280;17145;49.902;8.680;'2023-02-04 04:34:05';101580;;;7;46
30343;BME280;17145;49.902;8.680;'2023-02-04 04:36:32';101590;;;7;46
30343;BME280;17145;49.902;8.680;'2023-02-04 04:38:59';101590;;;7;45
30343;BME280;17145;49.902;8.680;'2023-02-04 04:41:27';101590;;;7;46
30343;BME280;17145;49.902;8.680;'2023-02-04 04:43:55';101590;;;7;46
30343;BME280;17145;49.902;8.680;'2023-02-04 04:46:22';101590;;;7;46
30343;BME280;17145;49.902;8.680;'2023-02-04 04:48:50';101580;;;7;46
30343;BME280;17145;49.902;8.680;'2023-02-04 04:51:17';101590;;;7;46
30343;BME280;17145;49.902;8.680;'2023-02-04 04:53:45';101590;;;7;46
30343;BME280;17145;49.902;8.680;'2023-02-04 04:56:12';101600;;;6;46
30343;BME280;17145;49.902;8.680;'2023-02-04 04:58:39';101600;;;7;46
30343;BME280;17145;49.902;8.680;'2023-02-04 05:01:07';101600;;;7;47
30343;BME280;17145;49.902;8.680;'2023-02-04 05:03:35';101600;;;6;46
30343;BME280;17145;49.902;8.680;'2023-02-04 05:06:02';101600;;;6;47
30343;BME280;17145;49.902;8.680;'2023-02-04 05:08:29';101610;;;7;47
30343;BME280;17145;49.902;8.680;'2023-02-04 05:10:57';101610;;;7;47
30343;BME280;17145;49.902;8.680;'2023-02-04 05:13:25';101610;;;6;47
30343;BME280;17145;49.902;8.680;'2023-02-04 05:15:52';101610;;;6;47
30343;BME280;17145;49.902;8.680;'2023-02-04 05:18:19';101610;;;7;47
30343;BME280;17145;49.902;8.680;'2023-02-04 05:20:47';101620;;;7;47
30343;BME280;17145;49.902;8.680;'2023-02-04 05:23:14';101640;;;7;47
30343;BME280;17145;49.902;8.680;'2023-02-04 05:25:41';101640;;;7;46
30343;BME280;17145;49.902;8.680;'2023-02-04 05:28:09';101640;;;7;46
30343;BME280;17145;49.902;8.680;'2023-02-04 05:30:37';101650;;;7;46
30343;BME280;17145;49.902;8.680;'2023-02-04 05:33:04';101650;;;7;46
30343;BME280;17145;49.902;8.680;'2023-02-04 05:35:31';101650;;;7;46
30343;BME280;17145;49.902;8.680;'2023-02-04 05:37:59';101650;;;7;46
30343;BME280;17145;49.902;8.680;'2023-02-04 05:40:26';101650;;;7;46
30343;BME280;17145;49.902;8.680;'2023-02-04 05:42:54';101640;;;7;47
30343;BME280;17145;49.902;8.680;'2023-02-04 05:45:22';101650;;;7;46
30343;BME280;17145;49.902;8.680;'2023-02-04 05:47:49';101650;;;7;46
30343;BME280;17145;49.902;8.680;'2023-02-04 05:50:16';101640;;;7;46
30343;BME280;17145;49.902;8.680;'2023-02-04 05:52:44';101640;;;7;46
30343;BME280;17145;49.902;8.680;'2023-02-04 05:55:11';101630;;;7;46
30343;BME280;17145;49.902;8.680;'2023-02-04 05:57:39';101630;;;7;46
30343;BME280;17145;49.902;8.680;'2023-02-04 06:00:10';101640;;;7;46
30343;BME280;17145;49.902;8.680;'2023-02-04 06:02:38';101640;;;7;46
30343;BME280;17145;49.902;8.680;'2023-02-04 06:05:05';101640;;;7;46
30343;BME280;17145;49.902;8.680;'2023-02-04 06:07:33';101640;;;7;46
30343;BME280;17145;49.902;8.680;'2023-02-04 06:10:01';101640;;;7;46
30343;BME280;17145;49.902;8.680;'2023-02-04 06:12:28';101640;;;7;46
30343;BME280;17145;49.902;8.680;'2023-02-04 06:14:56';101640;;;7;46
30343;BME280;17145;49.902;8.680;'2023-02-04 06:17:23';101640;;;7;46
30343;BME280;17145;49.902;8.680;'2023-02-04 06:19:51';101650;;;7;46
30343;BME280;17145;49.902;8.680;'2023-02-04 06:22:18';101650;;;7;46
30343;BME280;17145;49.902;8.680;'2023-02-04 06:24:45';101660;;;6;47
30343;BME280;17145;49.902;8.680;'2023-02-04 06:27:13';101660;;;7;47
30343;BME280;17145;49.902;8.680;'2023-02-04 06:29:40';101670;;;7;47
30343;BME280;17145;49.902;8.680;'2023-02-04 06:32:08';101670;;;7;47
30343;BME280;17145;49.902;8.680;'2023-02-04 06:34:35';101680;;;7;47
30343;BME280;17145;49.902;8.680;'2023-02-04 06:37:02';101680;;;7;47
30343;BME280;17145;49.902;8.680;'2023-02-04 06:39:30';101680;;;7;47
30343;BME280;17145;49.902;8.680;'2023-02-04 06:41:57';101670;;;6;47
30343;BME280;17145;49.902;8.680;'2023-02-04 06:44:25';101680;;;6;47
30343;BME280;17145;49.902;8.680;'2023-02-04 06:46:52';101680;;;6;47
30343;BME280;17145;49.902;8.680;'2023-02-04 06:49:19';101680;;;6;47
30343;BME280;17145;49.902;8.680;'2023-02-04 06:51:47';101690;;;6;47
30343;BME280;17145;49.902;8.680;'2023-02-04 06:54:14';101690;;;6;47
30343;BME280;17145;49.902;8.680;'2023-02-04 06:56:42';101690;;;7;47
30343;BME280;17145;49.902;8.680;'2023-02-04 06:59:09';101690;;;7;47
30343;BME280;17145;49.902;8.680;'2023-02-04 07:01:36';101690;;;6;47
30343;BME280;17145;49.902;8.680;'2023-02-04 07:04:04';101690;;;6;47
30343;BME280;17145;49.902;8.680;'2023-02-04 07:06:31';101700;;;6;47
30343;BME280;17145;49.902;8.680;'2023-02-04 07:08:59';101700;;;6;47
30343;BME280;17145;49.902;8.680;'2023-02-04 07:11:26';101710;;;6;47
30343;BME280;17145;49.902;8.680;'2023-02-04 07:13:54';101700;;;6;48
30343;BME280;17145;49.902;8.680;'2023-02-04 07:16:21';101710;;;6;48
30343;BME280;17145;49.902;8.680;'2023-02-04 07:18:48';101710;;;6;48
30343;BME280;17145;49.902;8.680;'2023-02-04 07:21:16';101720;;;6;48
30343;BME280;17145;49.902;8.680;'2023-02-04 07:23:44';101730;;;6;48
30343;BME280;17145;49.902;8.680;'2023-02-04 07:26:11';101730;;;6;48
30343;BME280;17145;49.902;8.680;'2023-02-04 07:28:39';101730;;;6;48
30343;BME280;17145;49.902;8.680;'2023-02-04 07:31:06';101730;;;6;48
30343;BME280;17145;49.902;8.680;'2023-02-04 07:33:34';101730;;;6;48
30343;BME280;17145;49.902;8.680;'2023-02-04 07:36:01';101730;;;6;48
30343;BME280;17145;49.902;8.680;'2023-02-04 07:38:29';101730;;;6;48
30343;BME280;17145;49.902;8.680;'2023-02-04 07:40:57';101730;;;6;48
30343;BME280;17145;49.902;8.680;'2023-02-04 07:43:24';101730;;;6;48
30343;BME280;17145;49.902;8.680;'2023-02-04 07:45:51';101730;;;6;48
30343;BME280;17145;49.902;8.680;'2023-02-04 07:48:19';101730;;;6;48
30343;BME280;17145;49.902;8.680;'2023-02-04 07:50:46';101730;;;6;48
30343;BME280;17145;49.902;8.680;'2023-02-04 07:53:14';101730;;;6;48
30343;BME280;17145;49.902;8.680;'2023-02-04 07:55:41';101740;;;6;48
30343;BME280;17145;49.902;8.680;'2023-02-04 07:58:09';101740;;;6;48
30343;BME280;17145;49.902;8.680;'2023-02-04 08:00:36';101740;;;6;49
30343;BME280;17145;49.902;8.680;'2023-02-04 08:03:04';101740;;;6;48
30343;BME280;17145;49.902;8.680;'2023-02-04 08:05:31';101750;;;6;48
30343;BME280;17145;49.902;8.680;'2023-02-04 08:07:58';101750;;;6;48
30343;BME280;17145;49.902;8.680;'2023-02-04 08:10:26';101760;;;6;48
30343;BME280;17145;49.902;8.680;'2023-02-04 08:12:53';101760;;;6;48
30343;BME280;17145;49.902;8.680;'2023-02-04 08:15:21';101770;;;6;48
30343;BME280;17145;49.902;8.680;'2023-02-04 08:17:48';101780;;;6;49
30343;BME280;17145;49.902;8.680;'2023-02-04 08:20:16';101790;;;6;49
30343;BME280;17145;49.902;8.680;'2023-02-04 08:22:43';101790;;;7;49
30343;BME280;17145;49.902;8.680;'2023-02-04 08:25:11';101800;;;6;49
30343;BME280;17145;49.902;8.680;'2023-02-04 08:27:38';101800;;;6;49
30343;BME280;17145;49.902;8.680;'2023-02-04 08:30:07';101800;;;6;49
30343;BME280;17145;49.902;8.680;'2023-02-04 08:32:35';101790;;;6;49
30343;BME280;17145;49.902;8.680;'2023-02-04 08:35:02';101800;;;6;49
30343;BME280;17145;49.902;8.680;'2023-02-04 08:37:29';101810;;;6;49
30343;BME280;17145;49.902;8.680;'2023-02-04 08:39:57';101810;;;7;49
30343;BME280;17145;49.902;8.680;'2023-02-04 08:42:24';101810;;;7;49
30343;BME280;17145;49.902;8.680;'2023-02-04 08:44:52';101810;;;7;49
30343;BME280;17145;49.902;8.680;'2023-02-04 08:47:19';101820;;;7;49
30343;BME280;17145;49.902;8.680;'2023-02-04 08:49:46';101820;;;7;50
30343;BME280;17145;49.902;8.680;'2023-02-04 08:52:14';101820;;;7;49
30343;BME280;17145;49.902;8.680;'2023-02-04 08:54:41';101820;;;7;49
30343;BME280;17145;49.902;8.680;'2023-02-04 08:57:09';101830;;;7;49
30343;BME280;17145;49.902;8.680;'2023-02-04 08:59:36';101840;;;7;49
30343;BME280;17145;49.902;8.680;'2023-02-04 09:02:03';101840;;;7;49
30343;BME280;17145;49.902;8.680;'2023-02-04 09:04:31';101850;;;7;49
30343;BME280;17145;49.902;8.680;'2023-02-04 09:06:58';101850;;;7;49
30343;BME280;17145;49.902;8.680;'2023-02-04 09:09:26';101840;;;7;50
30343;BME280;17145;49.902;8.680;'2023-02-04 09:11:53';101850;;;7;49
30343;BME280;17145;49.902;8.680;'2023-02-04 09:14:21';101850;;;7;49
30343;BME280;17145;49.902;8.680;'2023-02-04 09:16:48';101850;;;7;48
30343;BME280;17145;49.902;8.680;'2023-02-04 09:19:15';101850;;;7;48
30343;BME280;17145;49.902;8.680;'2023-02-04 09:21:43';101850;;;7;48
30343;BME280;17145;49.902;8.680;'2023-02-04 09:24:10';101860;;;7;48
30343;BME280;17145;49.902;8.680;'2023-02-04 09:26:38';101860;;;7;48
30343;BME280;17145;49.902;8.680;'2023-02-04 09:29:06';101860;;;7;48
30343;BME280;17145;49.902;8.680;'2023-02-04 09:31:33';101870;;;7;47
30343;BME280;17145;49.902;8.680;'2023-02-04 09:34:01';101870;;;7;47
30343;BME280;17145;49.902;8.680;'2023-02-04 09:36:28';101870;;;8;47
30343;BME280;17145;49.902;8.680;'2023-02-04 09:38:56';101880;;;8;47
30343;BME280;17145;49.902;8.680;'2023-02-04 09:41:23';101880;;;8;46
30343;BME280;17145;49.902;8.680;'2023-02-04 09:43:50';101880;;;8;46
30343;BME280;17145;49.902;8.680;'2023-02-04 09:46:18';101890;;;8;46
30343;BME280;17145;49.902;8.680;'2023-02-04 09:48:45';101890;;;8;45
30343;BME280;17145;49.902;8.680;'2023-02-04 09:51:13';101890;;;8;46
30343;BME280;17145;49.902;8.680;'2023-02-04 09:53:40';101890;;;8;46
30343;BME280;17145;49.902;8.680;'2023-02-04 09:56:08';101900;;;8;46
30343;BME280;17145;49.902;8.680;'2023-02-04 09:58:35';101900;;;8;46
30343;BME280;17145;49.902;8.680;'2023-02-04 10:01:03';101900;;;8;45
30343;BME280;17145;49.902;8.680;'2023-02-04 10:03:30';101910;;;8;46
30343;BME280;17145;49.902;8.680;'2023-02-04 10:05:57';101910;;;8;45
30343;BME280;17145;49.902;8.680;'2023-02-04 10:08:25';101910;;;8;45
30343;BME280;17145;49.902;8.680;'2023-02-04 10:10:52';101910;;;8;44
30343;BME280;17145;49.902;8.680;'2023-02-04 10:13:20';101910;;;8;44
30343;BME280;17145;49.902;8.680;'2023-02-04 10:15:47';101910;;;8;44
30343;BME280;17145;49.902;8.680;'2023-02-04 10:18:15';101910;;;8;44
30343;BME280;17145;49.902;8.680;'2023-02-04 10:20:42';101910;;;8;45
30343;BME280;17145;49.902;8.680;'2023-02-04 10:23:11';101910;;;8;45
30343;BME280;17145;49.902;8.680;'2023-02-04 10:25:38';101910;;;8;45
30343;BME280;17145;49.902;8.680;'2023-02-04 10:28:07';101910;;;8;45
30343;BME280;17145;49.902;8.680;'2023-02-04 10:30:35';101920;;;8;45
30343;BME280;17145;49.902;8.680;'2023-02-04 10:33:02';101920;;;8;44
30343;BME280;17145;49.902;8.680;'2023-02-04 10:35:30';101920;;;8;44
30343;BME280;17145;49.902;8.680;'2023-02-04 10:37:57';101930;;;8;44
30343;BME280;17145;49.902;8.680;'2023-02-04 10:40:27';101930;;;8;44
30343;BME280;17145;49.902;8.680;'2023-02-04 10:42:55';101930;;;8;44
30343;BME280;17145;49.902;8.680;'2023-02-04 10:45:25';101930;;;8;44
30343;BME280;17145;49.902;8.680;'2023-02-04 10:47:55';101930;;;9;43
30343;BME280;17145;49.902;8.680;'2023-02-04 10:50:25';101940;;;9;42
30343;BME280;17145;49.902;8.680;'2023-02-04 10:52:55';101940;;;9;42
30343;BME280;17145;49.902;8.680;'2023-02-04 10:55:28';101940;;;9;43
30343;BME280;17145;49.902;8.680;'2023-02-04 10:57:56';101950;;;9;42
30343;BME280;17145;49.902;8.680;'2023-02-04 11:00:26';101950;;;9;42
30343;BME280;17145;49.902;8.680;'2023-02-04 11:02:54';101950;;;9;42
30343;BME280;17145;49.902;8.680;'2023-02-04 11:05:27';101960;;;9;42
30343;BME280;17145;49.902;8.680;'2023-02-04 11:07:56';101960;;;9;42
30343;BME280;17145;49.902;8.680;'2023-02-04 11:10:25';101960;;;9;42
30343;BME280;17145;49.902;8.680;'2023-02-04 11:12:58';101960;;;9;42
30343;BME280;17145;49.902;8.680;'2023-02-04 11:15:25';101960;;;9;42
30343;BME280;17145;49.902;8.680;'2023-02-04 11:17:57';101970;;;9;42
30343;BME280;17145;49.902;8.680;'2023-02-04 11:20:25';101970;;;8;42
30343;BME280;17145;49.902;8.680;'2023-02-04 11:22:54';101970;;;9;42
30343;BME280;17145;49.902;8.680;'2023-02-04 11:25:24';101980;;;9;42
30343;BME280;17145;49.902;8.680;'2023-02-04 11:27:53';101980;;;9;42
30343;BME280;17145;49.902;8.680;'2023-02-04 11:30:22';101980;;;9;42
30343;BME280;17145;49.902;8.680;'2023-02-04 11:32:51';101980;;;9;42
30343;BME280;17145;49.902;8.680;'2023-02-04 11:35:21';101980;;;9;42
30343;BME280;17145;49.902;8.680;'2023-02-04 11:38:02';101980;;;9;42
30343;BME280;17145;49.902;8.680;'2023-02-04 11:40:31';101980;;;9;42
30343;BME280;17145;49.902;8.680;'2023-02-04 11:43:04';101980;;;9;42
30343;BME280;17145;49.902;8.680;'2023-02-04 11:45:31';101970;;;9;42
30343;BME280;17145;49.902;8.680;'2023-02-04 11:47:58';101980;;;10;41
30343;BME280;17145;49.902;8.680;'2023-02-04 11:50:27';101970;;;9;41
30343;BME280;17145;49.902;8.680;'2023-02-04 11:52:57';101970;;;9;41
30343;BME280;17145;49.902;8.680;'2023-02-04 11:55:25';101960;;;10;40
30343;BME280;17145;49.902;8.680;'2023-02-04 11:57:53';101970;;;10;40
30343;BME280;17145;49.902;8.680;'2023-02-04 12:00:22';101970;;;10;40
30343;BME280;17145;49.902;8.680;'2023-02-04 12:02:57';101970;;;10;39
30343;BME280;17145;49.902;8.680;'2023-02-04 12:05:30';101960;;;10;39
30343;BME280;17145;49.902;8.680;'2023-02-04 12:07:58';101970;;;10;39
30343;BME280;17145;49.902;8.680;'2023-02-04 12:10:29';101970;;;10;40
30343;BME280;17145;49.902;8.680;'2023-02-04 12:13:02';101970;;;10;39
30343;BME280;17145;49.902;8.680;'2023-02-04 12:15:38';101980;;;10;39
30343;BME280;17145;49.902;8.680;'2023-02-04 12:18:07';101980;;;10;39
30343;BME280;17145;49.902;8.680;'2023-02-04 12:20:36';101980;;;10;39
30343;BME280;17145;49.902;8.680;'2023-02-04 12:23:16';101980;;;9;39
30343;BME280;17145;49.902;8.680;'2023-02-04 12:25:43';101980;;;10;39
30343;BME280;17145;49.902;8.680;'2023-02-04 12:28:14';101980;;;9;39
30343;BME280;17145;49.902;8.680;'2023-02-04 12:30:42';101980;;;9;40
30343;BME280;17145;49.902;8.680;'2023-02-04 12:33:21';101980;;;9;39
30343;BME280;17145;49.902;8.680;'2023-02-04 12:36:00';101990;;;9;40
30343;BME280;17145;49.902;8.680;'2023-02-04 12:38:31';101980;;;9;40
30343;BME280;17145;49.902;8.680;'2023-02-04 12:40:59';101980;;;9;40
30343;BME280;17145;49.902;8.680;'2023-02-04 12:43:27';101970;;;9;40
30343;BME280;17145;49.902;8.680;'2023-02-04 12:46:01';101980;;;9;40
30343;BME280;17145;49.902;8.680;'2023-02-04 12:48:28';101980;;;9;40
30343;BME280;17145;49.902;8.680;'2023-02-04 12:50:57';101980;;;9;40
30343;BME280;17145;49.902;8.680;'2023-02-04 12:53:29';101980;;;9;40
30343;BME280;17145;49.902;8.680;'2023-02-04 12:55:57';101980;;;9;40
30343;BME280;17145;49.902;8.680;'2023-02-04 12:58:27';101980;;;9;39
30343;BME280;17145;49.902;8.680;'2023-02-04 13:00:54';101980;;;9;40
30343;BME280;17145;49.902;8.680;'2023-02-04 13:03:24';101980;;;10;40
30343;BME280;17145;49.902;8.680;'2023-02-04 13:05:52';101990;;;10;39
30343;BME280;17145;49.902;8.680;'2023-02-04 13:08:28';101990;;;10;39
30343;BME280;17145;49.902;8.680;'2023-02-04 13:11:04';101980;;;10;39
30343;BME280;17145;49.902;8.680;'2023-02-04 13:13:33';101980;;;10;38
30343;BME280;17145;49.902;8.680;'2023-02-04 13:16:03';101980;;;10;38
30343;BME280;17145;49.902;8.680;'2023-02-04 13:18:33';101990;;;10;38
30343;BME280;17145;49.902;8.680;'2023-02-04 13:21:01';101990;;;10;37
30343;BME280;17145;49.902;8.680;'2023-02-04 13:23:29';101990;;;10;37
30343;BME280;17145;49.902;8.680;'2023-02-04 13:25:58';101990;;;10;37
30343;BME280;17145;49.902;8.680;'2023-02-04 13:28:26';101990;;;10;37
30343;BME280;17145;49.902;8.680;'2023-02-04 13:30:53';101990;;;11;36
30343;BME280;17145;49.902;8.680;'2023-02-04 13:33:21';101990;;;11;36
30343;BME280;17145;49.902;8.680;'2023-02-04 13:35:48';101990;;;11;37
30343;BME280;17145;49.902;8.680;'2023-02-04 13:38:16';101990;;;11;37
30343;BME280;17145;49.902;8.680;'2023-02-04 13:40:44';101990;;;11;37
30343;BME280;17145;49.902;8.680;'2023-02-04 13:43:11';101990;;;11;37
30343;BME280;17145;49.902;8.680;'2023-02-04 13:45:38';101990;;;11;37
30343;BME280;17145;49.902;8.680;'2023-02-04 13:48:06';101990;;;10;37
30343;BME280;17145;49.902;8.680;'2023-02-04 13:50:33';101990;;;10;37
30343;BME280;17145;49.902;8.680;'2023-02-04 13:53:01';101990;;;10;37
30343;BME280;17145;49.902;8.680;'2023-02-04 13:55:28';101990;;;10;37
30343;BME280;17145;49.902;8.680;'2023-02-04 13:57:56';101990;;;10;37
30343;BME280;17145;49.902;8.680;'2023-02-04 14:00:24';101990;;;10;37
30343;BME280;17145;49.902;8.680;'2023-02-04 14:02:51';101990;;;10;37
30343;BME280;17145;49.902;8.680;'2023-02-04 14:05:19';101990;;;11;36
30343;BME280;17145;49.902;8.680;'2023-02-04 14:07:46';102000;;;10;36
30343;BME280;17145;49.902;8.680;'2023-02-04 14:10:14';102000;;;11;36
30343;BME280;17145;49.902;8.680;'2023-02-04 14:12:41';102000;;;11;37
30343;BME280;17145;49.902;8.680;'2023-02-04 14:15:09';102000;;;11;36
30343;BME280;17145;49.902;8.680;'2023-02-04 14:17:37';102000;;;11;36
30343;BME280;17145;49.902;8.680;'2023-02-04 14:20:07';102000;;;10;35
30343;BME280;17145;49.902;8.680;'2023-02-04 14:22:35';102000;;;11;36
30343;BME280;17145;49.902;8.680;'2023-02-04 14:25:02';102000;;;10;36
30343;BME280;17145;49.902;8.680;'2023-02-04 14:27:30';101990;;;10;36
30343;BME280;17145;49.902;8.680;'2023-02-04 14:29:57';101990;;;10;36
30343;BME280;17145;49.902;8.680;'2023-02-04 14:32:24';101990;;;10;35
30343;BME280;17145;49.902;8.680;'2023-02-04 14:34:52';101990;;;11;35
30343;BME280;17145;49.902;8.680;'2023-02-04 14:37:19';101980;;;10;35
30343;BME280;17145;49.902;8.680;'2023-02-04 14:39:47';101990;;;10;35
30343;BME280;17145;49.902;8.680;'2023-02-04 14:42:14';101990;;;10;35
30343;BME280;17145;49.902;8.680;'2023-02-04 14:44:42';101990;;;10;35
30343;BME280;17145;49.902;8.680;'2023-02-04 14:47:09';101980;;;10;36
30343;BME280;17145;49.902;8.680;'2023-02-04 14:49:36';101990;;;11;36
30343;BME280;17145;49.902;8.680;'2023-02-04 14:52:04';101980;;;11;36
30343;BME280;17145;49.902;8.680;'2023-02-04 14:54:32';101990;;;11;36
30343;BME280;17145;49.902;8.680;'2023-02-04 14:56:59';101980;;;12;35
30343;BME280;17145;49.902;8.680;'2023-02-04 14:59:27';101980;;;11;33
30343;BME280;17145;49.902;8.680;'2023-02-04 15:01:54';101990;;;12;35
30343;BME280;17145;49.902;8.680;'2023-02-04 15:04:22';101990;;;12;34
30343;BME280;17145;49.902;8.680;'2023-02-04 15:06:49';101980;;;12;33
30343;BME280;17145;49.902;8.680;'2023-02-04 15:09:16';101980;;;12;34
30343;BME280;17145;49.902;8.680;'2023-02-04 15:11:44';101980;;;12;33
30343;BME280;17145;49.902;8.680;'2023-02-04 15:14:11';101980;;;12;32
30343;BME280;17145;49.902;8.680;'2023-02-04 15:16:39';101990;;;13;32
30343;BME280;17145;49.902;8.680;'2023-02-04 15:19:06';101990;;;13;32
30343;BME280;17145;49.902;8.680;'2023-02-04 15:21:34';101990;;;12;32
30343;BME280;17145;49.902;8.680;'2023-02-04 15:24:01';101990;;;12;33